Time;durP1;ratioP1;P1;durP2;ratioP2;P2;SDS_P1;SDS_P2;PMS_P1;PMS_P2;Temp;Humidity;BMP_temperature;BMP_pressure;BME280_temperature;BME280_humidity;BME280_pressure;Samples;Min_cycle;Max_cycle;Signal;HPM_P1;HPM_P2
2023/06/06 00:00:14;;;;;;;3.30;3.10;;;19.70;48.40;;;;;;20718;6835;117645;-73
2023/06/06 00:02:42;;;;;;;3.10;2.90;;;19.60;48.60;;;;;;20722;6835;117898;-74
2023/06/06 00:05:08;;;;;;;3.03;2.83;;;19.40;48.80;;;;;;20736;6835;117280;-73
2023/06/06 00:07:35;;;;;;;3.50;3.40;;;19.40;48.80;;;;;;20530;6835;278759;-73
2023/06/06 00:10:00;;;;;;;3.60;3.30;;;19.70;49.50;;;;;;20503;6835;333706;-74
2023/06/06 00:12:28;;;;;;;3.37;3.00;;;20.10;48.50;;;;;;20755;6835;117394;-74
2023/06/06 00:14:52;;;;;;;4.70;3.20;;;20.10;48.50;;;;;;20734;6835;117680;-74
2023/06/06 00:17:17;;;;;;;3.10;2.90;;;19.80;48.50;;;;;;20756;6835;117177;-74
2023/06/06 00:19:43;;;;;;;3.45;2.78;;;19.60;48.70;;;;;;20751;6835;117738;-74
2023/06/06 00:22:11;;;;;;;3.15;3.00;;;19.50;48.90;;;;;;20731;6835;121500;-74
2023/06/06 00:24:34;;;;;;;3.37;3.10;;;19.30;49.00;;;;;;20528;6835;306557;-74
2023/06/06 00:27:00;;;;;;;3.47;3.20;;;19.60;49.30;;;;;;20742;6835;117146;-74
2023/06/06 00:29:25;;;;;;;3.62;2.90;;;19.60;48.80;;;;;;20743;6835;120160;-74
2023/06/06 00:31:50;;;;;;;3.22;3.03;;;19.40;48.80;;;;;;20748;6835;117268;-73
2023/06/06 00:34:16;;;;;;;3.70;3.28;;;19.30;49.00;;;;;;20515;6835;292524;-73
2023/06/06 00:36:42;;;;;;;3.25;3.05;;;19.60;49.40;;;;;;20730;6835;117252;-73
2023/06/06 00:39:07;;;;;;;3.67;3.07;;;19.60;49.00;;;;;;20739;6833;118731;-74
2023/06/06 00:41:33;;;;;;;3.37;3.17;;;19.40;48.90;;;;;;20538;6834;280308;-73
2023/06/06 00:43:59;;;;;;;4.00;3.33;;;19.60;49.00;;;;;;20512;6835;307838;-74
2023/06/06 00:46:24;;;;;;;3.30;3.10;;;20.00;48.40;;;;;;20520;6835;294250;-74
2023/06/06 00:48:49;;;;;;;3.53;3.23;;;20.30;47.90;;;;;;20742;6835;118288;-74
2023/06/06 00:51:15;;;;;;;3.23;3.03;;;20.10;47.70;;;;;;20528;6835;305004;-73
2023/06/06 00:54:27;;;;;;;2.83;2.70;;;20.10;47.70;;;;;;20737;6835;117627;-74
2023/06/06 00:56:53;;;;;;;4.10;3.40;;;20.00;47.70;;;;;;20473;6850;337574;-74
2023/06/06 00:59:18;;;;;;;3.40;2.80;;;20.00;47.70;;;;;;20745;6835;119243;-73
2023/06/06 01:01:47;;;;;;;3.10;2.92;;;19.90;47.70;;;;;;20732;6835;117685;-74
2023/06/06 01:04:12;;;;;;;3.20;3.00;;;19.60;47.90;;;;;;20725;6835;118389;-74
2023/06/06 01:06:37;;;;;;;2.85;2.75;;;19.40;48.20;;;;;;20747;6835;118612;-74
2023/06/06 01:09:05;;;;;;;2.78;2.67;;;19.20;48.50;;;;;;20746;6835;118390;-73
2023/06/06 01:11:51;;;;;;;2.70;2.50;;;19.00;48.60;;;;;;20738;6835;119369;-73
2023/06/06 01:14:43;;;;;;;2.73;2.53;;;18.90;48.60;;;;;;20695;6835;121945;-73
2023/06/06 01:17:09;;;;;;;2.70;2.60;;;18.80;48.70;;;;;;20486;6850;278929;-73
2023/06/06 01:19:37;;;;;;;3.13;2.80;;;19.50;47.90;;;;;;20508;6835;283342;-73
2023/06/06 01:22:01;;;;;;;2.90;2.70;;;19.50;47.90;;;;;;20504;6835;306879;-74
2023/06/06 01:24:27;;;;;;;2.50;2.40;;;19.80;47.30;;;;;;20735;6835;119667;-78
2023/06/06 01:26:51;;;;;;;2.60;2.50;;;19.70;47.20;;;;;;20741;6835;117295;-73
2023/06/06 01:29:17;;;;;;;3.10;2.90;;;19.40;47.40;;;;;;20534;6835;279274;-73
2023/06/06 01:31:44;;;;;;;2.60;2.40;;;19.50;47.60;;;;;;20738;6835;118831;-73
2023/06/06 01:34:10;;;;;;;3.10;2.80;;;19.50;47.50;;;;;;20667;6835;121239;-74
2023/06/06 01:36:41;;;;;;;3.28;3.08;;;19.20;47.70;;;;;;20716;6834;118911;-73
2023/06/06 01:39:15;;;;;;;3.30;3.10;;;19.00;48.70;;;;;;20511;6834;278695;-73
2023/06/06 01:41:39;;;;;;;3.13;2.93;;;19.30;48.30;;;;;;20520;6835;281039;-73
2023/06/06 01:44:05;;;;;;;3.40;3.03;;;19.60;47.70;;;;;;20507;6835;336322;-73
2023/06/06 01:46:30;;;;;;;2.53;2.42;;;19.80;47.10;;;;;;20736;6835;118352;-73
2023/06/06 01:48:56;;;;;;;3.50;3.20;;;19.70;47.10;;;;;;20530;6835;278614;-74
2023/06/06 01:51:21;;;;;;;3.37;3.10;;;19.70;47.40;;;;;;20535;6833;308948;-76
2023/06/06 01:53:47;;;;;;;2.80;2.70;;;19.60;47.30;;;;;;20725;6835;117221;-79
2023/06/06 01:56:14;;;;;;;3.10;3.00;;;19.60;48.40;;;;;;20514;6835;306406;-74
2023/06/06 01:58:39;;;;;;;3.20;3.10;;;19.50;47.50;;;;;;20538;6835;311361;-76
2023/06/06 02:01:06;;;;;;;2.80;2.70;;;19.50;47.50;;;;;;20740;6834;118799;-79
2023/06/06 02:03:31;;;;;;;4.40;3.17;;;19.50;47.50;;;;;;20747;6835;118370;-73
2023/06/06 02:05:57;;;;;;;3.50;3.10;;;19.00;48.30;;;;;;20718;6835;118499;-75
2023/06/06 02:08:23;;;;;;;2.90;2.70;;;19.00;48.30;;;;;;20745;6835;117940;-73
2023/06/06 02:10:49;;;;;;;3.60;3.40;;;18.80;48.50;;;;;;20530;6835;340623;-73
2023/06/06 02:13:14;;;;;;;3.55;3.30;;;19.00;48.70;;;;;;20734;6835;117587;-75
2023/06/06 02:15:40;;;;;;;3.00;2.90;;;18.90;48.40;;;;;;20745;6835;117232;-74
2023/06/06 02:18:05;;;;;;;3.35;3.15;;;18.70;48.70;;;;;;20510;6835;293663;-75
2023/06/06 02:20:31;;;;;;;3.58;3.42;;;18.90;49.10;;;;;;20539;6835;306518;-73
2023/06/06 02:22:56;;;;;;;3.63;3.37;;;19.20;48.60;;;;;;20692;6850;119692;-74
2023/06/06 02:25:23;;;;;;;3.60;3.40;;;19.10;48.40;;;;;;20534;6835;306569;-73
2023/06/06 02:27:50;;;;;;;3.47;3.28;;;19.20;48.30;;;;;;20742;6835;117266;-73
2023/06/06 02:30:17;;;;;;;3.33;3.23;;;19.10;48.20;;;;;;20721;6835;118622;-73
2023/06/06 02:32:43;;;;;;;3.73;3.43;;;18.60;48.80;;;;;;20744;6835;117904;-74
2023/06/06 02:35:09;;;;;;;3.77;3.67;;;18.50;48.70;;;;;;20521;6835;282379;-73
2023/06/06 02:37:35;;;;;;;3.70;3.50;;;18.70;49.20;;;;;;20526;6835;307627;-73
2023/06/06 02:40:08;;;;;;;3.65;3.45;;;18.90;48.60;;;;;;20721;6835;121108;-73
2023/06/06 02:42:26;;;;;;;3.70;3.50;;;18.90;48.60;;;;;;20727;6835;121503;-73
2023/06/06 02:44:52;;;;;;;3.90;3.70;;;18.60;48.90;;;;;;20538;6835;290461;-73
2023/06/06 02:47:19;;;;;;;3.60;3.50;;;18.70;49.10;;;;;;20526;6835;307137;-74
2023/06/06 02:49:45;;;;;;;4.40;4.00;;;19.00;48.60;;;;;;20742;6835;118801;-73
2023/06/06 02:52:11;;;;;;;3.45;3.28;;;18.50;48.90;;;;;;20716;6835;117687;-74
2023/06/06 02:54:36;;;;;;;4.12;3.92;;;18.50;48.90;;;;;;20528;6835;340896;-73
2023/06/06 02:57:02;;;;;;;3.70;3.50;;;18.60;49.20;;;;;;20737;6835;117128;-73
2023/06/06 02:59:27;;;;;;;3.47;3.27;;;18.50;49.10;;;;;;20729;6835;117300;-73
2023/06/06 03:01:53;;;;;;;3.92;3.72;;;18.20;49.50;;;;;;20534;6833;277625;-73
2023/06/06 03:04:19;;;;;;;3.72;3.53;;;18.40;49.60;;;;;;20682;6834;117742;-73
2023/06/06 03:06:44;;;;;;;3.90;3.70;;;18.40;49.50;;;;;;20493;6835;307458;-73
2023/06/06 03:09:10;;;;;;;4.12;3.92;;;18.60;49.50;;;;;;20523;6835;305668;-73
2023/06/06 03:11:35;;;;;;;3.43;3.23;;;18.90;48.70;;;;;;20721;6835;117433;-73
2023/06/06 03:14:02;;;;;;;3.40;3.17;;;18.50;48.90;;;;;;20693;6835;122301;-73
2023/06/06 03:16:28;;;;;;;4.00;3.80;;;18.50;48.90;;;;;;20511;6835;341725;-73
2023/06/06 03:18:53;;;;;;;3.90;3.70;;;18.60;48.80;;;;;;20468;6835;311289;-73
2023/06/06 03:21:18;;;;;;;3.72;3.53;;;18.90;48.40;;;;;;20493;6835;307701;-73
2023/06/06 03:23:44;;;;;;;4.28;4.07;;;19.10;47.80;;;;;;20520;6835;339497;-73
2023/06/06 03:26:09;;;;;;;4.40;4.20;;;19.20;47.60;;;;;;20494;6835;306845;-73
2023/06/06 03:28:35;;;;;;;3.72;3.42;;;19.30;47.70;;;;;;20733;6835;118028;-73
2023/06/06 03:31:01;;;;;;;3.78;3.58;;;18.90;47.90;;;;;;20743;6835;117270;-73
2023/06/06 03:33:26;;;;;;;4.00;3.80;;;18.50;48.50;;;;;;20517;6835;277416;-73
2023/06/06 03:35:52;;;;;;;4.10;3.80;;;18.60;48.90;;;;;;20533;6835;283283;-73
2023/06/06 03:38:19;;;;;;;3.80;3.60;;;18.80;48.60;;;;;;20686;6835;117763;-73
2023/06/06 03:40:44;;;;;;;3.53;3.33;;;18.70;48.50;;;;;;20700;6835;117424;-72
2023/06/06 03:43:10;;;;;;;3.70;3.50;;;18.40;48.90;;;;;;20708;6835;117297;-74
2023/06/06 03:45:35;;;;;;;4.05;3.75;;;18.20;49.30;;;;;;20486;6835;307600;-74
2023/06/06 03:48:01;;;;;;;4.20;3.90;;;18.40;49.40;;;;;;20687;6835;118140;-74
2023/06/06 03:50:27;;;;;;;3.93;3.63;;;18.20;49.40;;;;;;20713;6835;119815;-74
2023/06/06 03:52:55;;;;;;;3.50;3.30;;;18.00;49.60;;;;;;20707;6835;121164;-74
2023/06/06 03:55:20;;;;;;;3.77;3.57;;;18.00;49.60;;;;;;20517;6835;311071;-74
2023/06/06 03:57:46;;;;;;;4.20;4.00;;;18.20;49.60;;;;;;20529;6835;277276;-75
2023/06/06 04:00:13;;;;;;;3.20;3.00;;;18.60;48.90;;;;;;20724;6835;117693;-73
2023/06/06 04:02:37;;;;;;;4.00;3.80;;;18.50;48.70;;;;;;20520;6835;308823;-74
2023/06/06 04:05:03;;;;;;;3.83;3.63;;;18.60;48.40;;;;;;20740;6835;117252;-74
2023/06/06 04:07:31;;;;;;;3.83;3.63;;;18.50;48.50;;;;;;20729;6835;117934;-73
2023/06/06 04:09:55;;;;;;;3.73;3.53;;;18.20;48.90;;;;;;20735;6835;117223;-71
2023/06/06 04:12:21;;;;;;;3.77;3.57;;;18.00;49.40;;;;;;20514;6833;305338;-70
2023/06/06 04:14:47;;;;;;;3.95;3.65;;;18.50;50.60;;;;;;20738;6834;116412;-70
2023/06/06 04:17:12;;;;;;;3.13;2.97;;;18.50;50.60;;;;;;20747;6835;117151;-73
2023/06/06 04:19:38;;;;;;;3.20;3.10;;;18.60;50.20;;;;;;20529;6835;336345;-70
2023/06/06 04:22:05;;;;;;;3.50;3.30;;;19.10;49.00;;;;;;20512;6835;288662;-70
2023/06/06 04:24:30;;;;;;;3.20;3.08;;;20.00;47.90;;;;;;20746;6835;117298;-70
2023/06/06 04:26:57;;;;;;;3.20;3.10;;;20.00;47.40;;;;;;20525;6835;337272;-70
2023/06/06 04:29:23;;;;;;;3.17;3.00;;;20.60;46.30;;;;;;20746;6835;117177;-71
2023/06/06 04:31:52;;;;;;;3.33;3.20;;;20.60;46.30;;;;;;20535;6835;281031;-70
2023/06/06 04:34:16;;;;;;;3.55;3.25;;;21.00;46.20;;;;;;20504;6835;311100;-70
2023/06/06 04:36:41;;;;;;;3.37;3.17;;;21.40;44.90;;;;;;20741;6835;117298;-70
2023/06/06 04:39:07;;;;;;;3.60;3.40;;;21.40;44.90;;;;;;20733;6835;121471;-71
2023/06/06 04:41:33;;;;;;;2.90;2.80;;;21.20;45.10;;;;;;20741;6835;117100;-70
2023/06/06 04:43:59;;;;;;;3.33;3.03;;;20.70;45.90;;;;;;20714;6835;151329;-71
2023/06/06 04:46:24;;;;;;;3.30;3.17;;;20.70;45.80;;;;;;20740;6835;119470;-71
2023/06/06 04:48:53;;;;;;;3.10;3.00;;;20.50;46.90;;;;;;20723;6835;117206;-72
2023/06/06 04:51:20;;;;;;;3.58;3.37;;;20.50;46.20;;;;;;20525;6835;336050;-70
2023/06/06 04:53:44;;;;;;;3.37;3.17;;;20.90;45.80;;;;;;20727;6835;117069;-70
2023/06/06 04:56:11;;;;;;;2.97;2.80;;;20.90;45.60;;;;;;20722;6835;117594;-71
2023/06/06 04:58:36;;;;;;;3.73;3.53;;;20.80;45.80;;;;;;20527;6835;310899;-71
2023/06/06 05:01:02;;;;;;;2.97;2.87;;;21.00;45.80;;;;;;20724;6835;117787;-71
2023/06/06 05:03:27;;;;;;;3.40;3.20;;;21.00;45.90;;;;;;20519;6835;307785;-71
2023/06/06 05:05:54;;;;;;;3.80;3.50;;;21.10;45.60;;;;;;20534;6835;293762;-71
2023/06/06 05:08:20;;;;;;;4.20;3.90;;;21.50;45.00;;;;;;20505;6835;307754;-70
2023/06/06 05:10:46;;;;;;;3.80;3.60;;;21.70;44.90;;;;;;20527;6835;280517;-71
2023/06/06 05:13:11;;;;;;;3.00;2.90;;;21.90;44.20;;;;;;20737;6835;117225;-70
2023/06/06 05:15:37;;;;;;;3.60;3.40;;;21.60;44.40;;;;;;20533;6835;307599;-72
2023/06/06 05:18:03;;;;;;;3.40;3.20;;;21.70;44.70;;;;;;20458;6850;312004;-72
2023/06/06 05:20:29;;;;;;;3.33;3.10;;;21.90;44.50;;;;;;20525;6835;303938;-70
2023/06/06 05:22:54;;;;;;;3.40;3.20;;;22.10;44.10;;;;;;20744;6835;119875;-70
2023/06/06 05:25:19;;;;;;;3.23;3.07;;;22.00;44.20;;;;;;20744;6833;117099;-70
2023/06/06 05:27:46;;;;;;;3.35;3.15;;;21.80;44.60;;;;;;20525;6834;310424;-71
2023/06/06 05:30:11;;;;;;;3.90;3.70;;;21.90;44.40;;;;;;20721;6835;120272;-71
2023/06/06 05:32:37;;;;;;;3.30;3.07;;;21.90;44.40;;;;;;20737;6835;117217;-70
2023/06/06 05:35:03;;;;;;;4.10;3.90;;;21.80;44.60;;;;;;20743;6835;117514;-70
2023/06/06 05:37:28;;;;;;;4.10;3.83;;;21.70;44.70;;;;;;20529;6835;307627;-70
2023/06/06 05:40:20;;;;;;;4.00;3.80;;;21.90;44.00;;;;;;20519;6835;336320;-70
2023/06/06 05:42:49;;;;;;;4.07;3.83;;;22.30;43.30;;;;;;20705;6727;276254;-70
2023/06/06 05:45:25;;;;;;;3.57;3.37;;;22.70;42.80;;;;;;20917;6731;116748;-70
2023/06/06 05:48:03;;;;;;;3.63;3.43;;;22.60;43.00;;;;;;20925;6724;117399;-70
2023/06/06 05:50:37;;;;;;;3.73;3.53;;;22.50;43.10;;;;;;20683;6738;308646;-70
2023/06/06 05:53:12;;;;;;;3.80;3.50;;;22.50;43.10;;;;;;20820;6761;117688;-70
2023/06/06 05:55:48;;;;;;;3.73;3.40;;;22.60;43.30;;;;;;20939;6721;117134;-70
2023/06/06 05:58:23;;;;;;;3.70;3.40;;;22.60;43.50;;;;;;20922;6721;122928;-70
2023/06/06 06:01:00;;;;;;;3.62;3.42;;;22.50;43.70;;;;;;20721;6721;282476;-70
2023/06/06 06:03:40;;;;;;;3.30;3.07;;;22.90;42.90;;;;;;20887;6722;117100;-71
2023/06/06 06:06:10;;;;;;;3.30;3.10;;;23.00;42.90;;;;;;20880;6732;117375;-70
2023/06/06 06:08:48;;;;;;;3.40;3.20;;;23.00;43.20;;;;;;20718;6722;310325;-71
2023/06/06 06:11:21;;;;;;;3.40;3.20;;;23.40;41.90;;;;;;20921;6722;117084;-71
2023/06/06 06:13:57;;;;;;;3.50;3.30;;;23.80;43.00;;;;;;20598;6722;294306;-71
2023/06/06 06:16:33;;;;;;;4.12;3.83;;;24.40;40.60;;;;;;20715;6721;276167;-71
2023/06/06 06:19:08;;;;;;;3.97;3.20;;;25.10;38.90;;;;;;20896;6741;117380;-71
2023/06/06 06:21:45;;;;;;;3.70;3.50;;;25.90;37.80;;;;;;20680;6747;312438;-71
2023/06/06 06:24:20;;;;;;;3.23;3.13;;;25.90;37.50;;;;;;20615;6719;295076;-71
2023/06/06 06:26:56;;;;;;;3.60;3.50;;;26.40;36.50;;;;;;20727;6719;306012;-70
2023/06/06 06:29:32;;;;;;;3.80;3.60;;;27.20;34.30;;;;;;20736;6718;276585;-71
2023/06/06 06:32:08;;;;;;;3.67;3.40;;;27.10;34.20;;;;;;20701;6718;304778;-70
2023/06/06 06:34:43;;;;;;;3.80;3.60;;;27.20;34.30;;;;;;20788;6736;120237;-69
2023/06/06 06:37:29;;;;;;;;;;;;;;;;;;;;;
2023/06/06 06:40:21;;;;;;;3.47;3.30;;;25.90;35.90;;;;;;20893;6505;78060;-68
2023/06/06 06:42:47;;;;;;;3.50;3.30;;;25.50;36.90;;;;;;20817;6800;117346;-69
2023/06/06 06:45:12;;;;;;;3.83;3.60;;;25.30;37.50;;;;;;20431;6796;306621;-70
2023/06/06 06:47:38;;;;;;;3.77;3.47;;;25.40;36.90;;;;;;20614;6852;116925;-69
2023/06/06 06:50:06;;;;;;;3.55;3.35;;;25.40;37.60;;;;;;20418;6852;278693;-75
2023/06/06 06:52:33;;;;;;;3.73;3.37;;;25.80;37.20;;;;;;20429;6852;313320;-77
2023/06/06 06:55:00;;;;;;;3.37;3.17;;;26.60;36.20;;;;;;20602;6868;117407;-73
2023/06/06 06:57:28;;;;;;;3.33;3.12;;;27.00;36.10;;;;;;20416;6857;303252;-74
2023/06/06 06:59:53;;;;;;;3.87;3.67;;;27.60;34.60;;;;;;20646;6857;117072;-75
2023/06/06 07:02:19;;;;;;;3.47;3.20;;;27.80;34.60;;;;;;20421;6862;277878;-71
2023/06/06 07:04:46;;;;;;;3.25;3.05;;;28.20;33.10;;;;;;20452;6862;306159;-71
2023/06/06 07:07:10;;;;;;;3.05;2.85;;;28.50;32.40;;;;;;20682;6857;116911;-72
2023/06/06 07:09:35;;;;;;;2.90;2.70;;;28.50;32.70;;;;;;20674;6857;118359;-71
2023/06/06 07:12:05;;;;;;;3.35;3.05;;;28.30;33.30;;;;;;20453;6857;278272;-71
2023/06/06 07:14:29;;;;;;;3.53;3.33;;;28.50;32.00;;;;;;20626;6875;120787;-70
2023/06/06 07:16:54;;;;;;;3.43;3.23;;;28.40;32.60;;;;;;20603;6875;117662;-70
2023/06/06 07:19:19;;;;;;;3.20;3.00;;;28.40;33.00;;;;;;20629;6875;117248;-71
2023/06/06 07:21:45;;;;;;;3.40;3.10;;;28.40;33.20;;;;;;20409;6875;312592;-69
2023/06/06 07:24:10;;;;;;;3.28;2.97;;;28.70;32.10;;;;;;20365;6881;308705;-69
2023/06/06 07:26:36;;;;;;;3.10;2.80;;;29.20;30.90;;;;;;20676;6862;117748;-69
2023/06/06 07:29:01;;;;;;;3.10;2.90;;;29.10;31.10;;;;;;20452;6862;306215;-69
2023/06/06 07:31:27;;;;;;;2.87;2.67;;;29.10;31.10;;;;;;20672;6862;117235;-69
2023/06/06 07:33:53;;;;;;;3.30;3.10;;;29.00;31.10;;;;;;20460;6862;279650;-69
2023/06/06 07:36:18;;;;;;;3.30;3.10;;;28.90;31.10;;;;;;20389;6875;296052;-69
2023/06/06 07:38:44;;;;;;;2.70;2.57;;;29.00;30.60;;;;;;20623;6875;117201;-69
2023/06/06 07:41:10;;;;;;;4.10;3.40;;;28.80;30.10;;;;;;20410;6875;312410;-69
2023/06/06 07:43:36;;;;;;;3.20;3.00;;;28.80;30.10;;;;;;20414;6875;311435;-69
2023/06/06 07:46:02;;;;;;;4.22;3.10;;;28.80;29.70;;;;;;20405;6875;288825;-70
2023/06/06 07:48:29;;;;;;;3.10;2.90;;;28.80;29.70;;;;;;20568;6890;117522;-70
2023/06/06 07:50:55;;;;;;;3.20;3.00;;;28.40;30.00;;;;;;20410;6874;307758;-70
2023/06/06 07:53:20;;;;;;;3.17;2.97;;;28.30;30.80;;;;;;20644;6860;117271;-70
2023/06/06 07:55:47;;;;;;;3.47;3.20;;;28.10;31.00;;;;;;20453;6860;311108;-70
2023/06/06 07:58:13;;;;;;;3.37;3.17;;;28.30;31.10;;;;;;20437;6860;340512;-70
2023/06/06 08:00:38;;;;;;;3.23;2.93;;;28.30;31.10;;;;;;20667;6860;117262;-70
2023/06/06 08:03:04;;;;;;;4.15;3.30;;;28.20;31.00;;;;;;20675;6860;117190;-72
2023/06/06 08:05:33;;;;;;;3.55;2.95;;;27.70;31.20;;;;;;20671;6860;117429;-71
2023/06/06 08:07:56;;;;;;;3.00;2.90;;;27.70;31.10;;;;;;20679;6854;118237;-72
2023/06/06 08:10:21;;;;;;;3.30;3.10;;;27.60;31.30;;;;;;20469;6854;305742;-72
2023/06/06 08:12:47;;;;;;;3.00;2.80;;;27.70;31.00;;;;;;20476;6854;310967;-72
2023/06/06 08:15:14;;;;;;;3.37;3.17;;;28.50;30.50;;;;;;20485;6854;306570;-72
2023/06/06 08:17:39;;;;;;;3.47;3.20;;;28.40;30.40;;;;;;20476;6854;307294;-72
2023/06/06 08:20:08;;;;;;;3.33;3.12;;;28.70;29.60;;;;;;20455;6854;277244;-72
2023/06/06 08:22:31;;;;;;;3.60;3.30;;;28.90;29.50;;;;;;20463;6854;307470;-72
2023/06/06 08:24:57;;;;;;;3.27;3.10;;;28.80;30.00;;;;;;20670;6854;117183;-71
2023/06/06 08:27:22;;;;;;;3.40;3.20;;;28.80;29.80;;;;;;20461;6854;282640;-71
2023/06/06 08:29:48;;;;;;;3.72;3.20;;;28.80;30.00;;;;;;20463;6854;306614;-71
2023/06/06 08:32:13;;;;;;;5.00;3.70;;;29.00;29.60;;;;;;20453;6854;281690;-71
2023/06/06 08:34:39;;;;;;;3.67;3.47;;;29.20;29.40;;;;;;20473;6854;278815;-71
2023/06/06 08:37:06;;;;;;;3.80;3.40;;;29.40;29.10;;;;;;20451;6854;344985;-71
2023/06/06 08:39:31;;;;;;;4.63;3.67;;;29.40;29.10;;;;;;20663;6854;117290;-71
2023/06/06 08:41:56;;;;;;;3.60;3.40;;;29.20;29.10;;;;;;20455;6854;331977;-71
2023/06/06 08:44:23;;;;;;;3.75;3.40;;;28.80;28.60;;;;;;20679;6854;117420;-71
2023/06/06 08:46:52;;;;;;;3.70;3.30;;;28.80;28.50;;;;;;20689;6854;118239;-72
2023/06/06 08:49:18;;;;;;;3.60;3.30;;;28.40;29.20;;;;;;20468;6854;306661;-71
2023/06/06 08:51:43;;;;;;;3.43;3.23;;;28.50;29.10;;;;;;20665;6854;118788;-71
2023/06/06 08:54:08;;;;;;;3.70;3.40;;;28.40;29.30;;;;;;20442;6854;313113;-71
2023/06/06 08:56:34;;;;;;;3.40;3.10;;;28.50;28.80;;;;;;20664;6854;117396;-71
2023/06/06 08:58:59;;;;;;;3.50;3.20;;;28.40;29.00;;;;;;20479;6854;276816;-71
2023/06/06 09:01:25;;;;;;;3.73;3.50;;;28.40;28.10;;;;;;20479;6852;281755;-71
2023/06/06 09:03:56;;;;;;;3.43;3.20;;;28.50;28.30;;;;;;20468;6853;298759;-72
2023/06/06 09:06:19;;;;;;;3.70;3.40;;;28.70;28.00;;;;;;20450;6853;293190;-71
2023/06/06 09:08:45;;;;;;;3.30;3.13;;;28.80;27.70;;;;;;20467;6853;303369;-71
2023/06/06 09:11:10;;;;;;;3.53;3.30;;;28.90;28.40;;;;;;20474;6853;308960;-71
2023/06/06 09:13:36;;;;;;;6.80;3.07;;;28.90;28.10;;;;;;20693;6854;117264;-71
2023/06/06 09:16:06;;;;;;;4.07;3.70;;;28.50;28.50;;;;;;20656;6854;117126;-70
2023/06/06 09:18:31;;;;;;;3.40;3.10;;;28.50;28.20;;;;;;20682;6854;118015;-70
2023/06/06 09:20:57;;;;;;;3.33;3.07;;;28.20;28.70;;;;;;20675;6854;117838;-71
2023/06/06 09:23:23;;;;;;;3.00;2.80;;;28.00;29.40;;;;;;20683;6854;121079;-71
2023/06/06 09:25:49;;;;;;;3.50;3.13;;;28.00;29.30;;;;;;20448;6854;306934;-71
2023/06/06 09:28:15;;;;;;;4.37;3.30;;;28.30;29.40;;;;;;20649;6854;123509;-71
2023/06/06 09:30:40;;;;;;;4.50;3.70;;;28.60;29.30;;;;;;20471;6854;277886;-72
2023/06/06 09:33:05;;;;;;;4.30;4.00;;;28.80;28.80;;;;;;20674;6854;118097;-72
2023/06/06 09:35:32;;;;;;;3.50;3.25;;;28.90;27.80;;;;;;20469;6854;277827;-71
2023/06/06 09:37:57;;;;;;;3.67;3.37;;;28.90;27.80;;;;;;20664;6854;117368;-72
2023/06/06 09:40:25;;;;;;;3.47;3.27;;;28.80;27.90;;;;;;20658;6854;117519;-72
2023/06/06 09:42:51;;;;;;;4.20;3.90;;;28.60;28.30;;;;;;20487;6854;308152;-74
2023/06/06 09:45:16;;;;;;;4.22;3.92;;;28.70;28.20;;;;;;20396;6854;309566;-72
2023/06/06 09:47:42;;;;;;;3.80;3.50;;;28.80;28.20;;;;;;20397;6854;307408;-74
2023/06/06 09:50:10;;;;;;;3.80;3.60;;;29.00;28.20;;;;;;20656;6854;127501;-74
2023/06/06 09:52:35;;;;;;;3.70;3.40;;;28.90;28.20;;;;;;20635;6854;118521;-74
2023/06/06 09:55:01;;;;;;;3.63;3.33;;;28.80;28.50;;;;;;20638;6854;118948;-74
2023/06/06 09:57:26;;;;;;;3.80;3.60;;;28.70;28.50;;;;;;20649;6854;117789;-75
2023/06/06 09:59:55;;;;;;;3.85;3.62;;;28.50;28.40;;;;;;20445;6854;313361;-75
2023/06/06 10:02:21;;;;;;;3.90;3.70;;;28.60;28.50;;;;;;20639;6854;126587;-75
2023/06/06 10:04:47;;;;;;;4.25;3.95;;;28.70;28.70;;;;;;20467;6854;278939;-77
2023/06/06 10:07:12;;;;;;;4.37;3.97;;;28.80;28.10;;;;;;20454;6854;277857;-76
2023/06/06 10:09:38;;;;;;;3.57;3.37;;;28.80;28.40;;;;;;20691;6854;117157;-75
2023/06/06 10:12:04;;;;;;;3.83;3.50;;;28.80;28.30;;;;;;20458;6854;306716;-72
2023/06/06 10:14:30;;;;;;;4.25;3.95;;;28.90;28.60;;;;;;20453;6852;336726;-74
2023/06/06 10:16:55;;;;;;;10.50;9.77;;;29.10;28.90;;;;;;20468;6853;283395;-75
2023/06/06 10:19:21;;;;;;;4.20;3.90;;;29.30;28.70;;;;;;20472;6853;302038;-75
2023/06/06 10:21:48;;;;;;;4.33;3.93;;;29.50;28.50;;;;;;20682;6853;117709;-75
2023/06/06 10:24:17;;;;;;;4.27;4.00;;;29.30;28.40;;;;;;20445;6854;282805;-78
2023/06/06 10:26:45;;;;;;;4.20;3.80;;;29.40;28.70;;;;;;20482;6854;311087;-74
2023/06/06 10:29:11;;;;;;;4.47;3.73;;;29.50;28.70;;;;;;20473;6854;335780;-76
2023/06/06 10:31:46;;;;;;;3.90;3.70;;;29.80;28.30;;;;;;20471;6854;305903;-73
2023/06/06 10:34:13;;;;;;;4.17;3.87;;;30.00;28.60;;;;;;20456;6854;305286;-79
2023/06/06 10:36:40;;;;;;;4.13;3.80;;;30.20;27.90;;;;;;20680;6854;117442;-75
2023/06/06 10:39:14;;;;;;;3.97;3.73;;;30.20;27.70;;;;;;20682;6854;117785;-77
2023/06/06 10:41:41;;;;;;;3.92;3.70;;;30.00;27.90;;;;;;20442;6854;336301;-77
2023/06/06 10:44:06;;;;;;;5.37;3.90;;;29.90;27.90;;;;;;20641;6854;123811;-74
2023/06/06 10:46:36;;;;;;;4.03;3.73;;;29.90;27.90;;;;;;20476;6854;278657;-73
2023/06/06 10:49:06;;;;;;;4.00;3.80;;;29.90;28.20;;;;;;20454;6854;277734;-74
2023/06/06 10:51:35;;;;;;;4.17;3.77;;;30.10;27.60;;;;;;20453;6854;307337;-74
2023/06/06 10:54:13;;;;;;;4.23;3.87;;;30.20;27.80;;;;;;20634;6854;118023;-74
2023/06/06 10:56:52;;;;;;;4.07;3.80;;;30.10;27.60;;;;;;20464;6854;307039;-74
2023/06/06 10:59:28;;;;;;;4.40;4.10;;;30.10;27.30;;;;;;20464;6854;282389;-74
2023/06/06 11:01:54;;;;;;;4.20;3.80;;;30.20;27.10;;;;;;20459;6854;294843;-74
2023/06/06 11:04:22;;;;;;;3.90;3.60;;;30.30;27.20;;;;;;20653;6854;118323;-74
2023/06/06 11:06:51;;;;;;;3.77;3.47;;;30.10;27.20;;;;;;20671;6854;117512;-74
2023/06/06 11:09:30;;;;;;;3.70;3.50;;;29.80;27.20;;;;;;20643;6854;117820;-77
2023/06/06 11:12:05;;;;;;;3.70;3.50;;;29.60;27.20;;;;;;20458;6854;308341;-83
2023/06/06 11:14:31;;;;;;;4.80;3.73;;;29.70;27.00;;;;;;20055;6854;279174;-77
2023/06/06 11:16:58;;;;;;;4.07;3.87;;;29.90;26.80;;;;;;20588;6854;117303;-82
2023/06/06 11:19:22;;;;;;;3.90;3.70;;;29.90;26.80;;;;;;20467;6854;306849;-76
2023/06/06 11:21:48;;;;;;;4.00;3.70;;;29.80;26.70;;;;;;20453;6854;277480;-76
2023/06/06 11:24:14;;;;;;;4.07;3.60;;;30.00;26.50;;;;;;20439;6852;307332;-77
2023/06/06 11:26:40;;;;;;;4.27;3.97;;;30.20;26.60;;;;;;20472;6853;280780;-79
2023/06/06 11:29:07;;;;;;;4.00;3.80;;;30.40;26.10;;;;;;20472;6853;296182;-76
2023/06/06 11:31:31;;;;;;;4.28;3.95;;;30.50;26.30;;;;;;20461;6853;308030;-77
2023/06/06 11:34:11;;;;;;;3.80;3.60;;;30.50;26.10;;;;;;20685;6853;119266;-75
2023/06/06 11:36:39;;;;;;;4.57;4.15;;;30.50;26.10;;;;;;20298;6853;306758;-75
2023/06/06 11:39:05;;;;;;;4.45;3.87;;;30.60;26.40;;;;;;20473;6854;328582;-74
2023/06/06 11:41:30;;;;;;;4.62;4.10;;;30.60;25.70;;;;;;20458;6854;277664;-75
2023/06/06 11:43:56;;;;;;;4.28;4.00;;;30.50;25.80;;;;;;20674;6854;118092;-74
2023/06/06 11:46:22;;;;;;;4.17;3.87;;;30.20;26.00;;;;;;20454;6854;307800;-76
2023/06/06 11:48:47;;;;;;;4.22;3.78;;;30.10;26.30;;;;;;20463;6854;312401;-74
2023/06/06 11:51:13;;;;;;;6.17;3.67;;;30.20;25.20;;;;;;20616;6854;117283;-75
2023/06/06 11:53:40;;;;;;;4.10;3.70;;;30.20;25.40;;;;;;20434;6854;310557;-74
2023/06/06 11:56:05;;;;;;;4.90;4.37;;;30.20;25.30;;;;;;20648;6854;118191;-75
2023/06/06 11:58:31;;;;;;;4.45;4.15;;;30.10;25.60;;;;;;20482;6854;308267;-74
2023/06/06 12:01:03;;;;;;;3.90;3.60;;;30.00;26.00;;;;;;20480;6854;279658;-73
2023/06/06 12:03:31;;;;;;;4.30;3.93;;;29.90;25.50;;;;;;20472;6854;278232;-73
2023/06/06 12:05:58;;;;;;;4.27;3.50;;;29.90;25.40;;;;;;20685;6854;123537;-73
2023/06/06 12:08:23;;;;;;;3.90;3.70;;;29.70;25.60;;;;;;20677;6854;117976;-74
2023/06/06 12:10:49;;;;;;;4.10;3.70;;;29.20;26.00;;;;;;20688;6854;117701;-73
2023/06/06 12:13:15;;;;;;;3.93;3.60;;;29.20;26.00;;;;;;20687;6854;121071;-73
2023/06/06 12:15:43;;;;;;;3.80;3.60;;;29.10;26.60;;;;;;20614;6854;117380;-73
2023/06/06 12:18:09;;;;;;;4.17;3.60;;;29.10;26.50;;;;;;20636;6854;117720;-73
2023/06/06 12:20:35;;;;;;;4.10;3.77;;;29.10;26.50;;;;;;20475;6854;289528;-73
2023/06/06 12:23:00;;;;;;;3.47;3.27;;;29.20;25.50;;;;;;20691;6854;117819;-73
2023/06/06 12:25:26;;;;;;;3.83;3.50;;;29.40;25.50;;;;;;20691;6854;117418;-73
2023/06/06 12:27:53;;;;;;;4.25;3.95;;;29.40;25.50;;;;;;20463;6854;279171;-73
2023/06/06 12:30:17;;;;;;;4.35;4.00;;;29.60;24.60;;;;;;20448;6854;279266;-73
2023/06/06 12:32:43;;;;;;;4.30;4.00;;;29.80;24.50;;;;;;20634;6854;117430;-74
2023/06/06 12:35:08;;;;;;;4.05;3.72;;;29.60;24.60;;;;;;20433;6854;293861;-73
2023/06/06 12:37:40;;;;;;;3.90;3.60;;;29.50;23.90;;;;;;20435;6852;278241;-74